Time;durP1;ratioP1;P1;durP2;ratioP2;P2;SDS_P1;SDS_P2;PMS_P1;PMS_P2;Temp;Humidity;BMP_temperature;BMP_pressure;BME280_temperature;BME280_humidity;BME280_pressure;Samples;Min_cycle;Max_cycle;Signal;HPM_P1;HPM_P2
2023/09/29 00:00:14;;;;;;;7.95;3.10;;;;;;;-145.69;60.19;52002.78;5136663;27;20560;-80
2023/09/29 00:02:44;;;;;;;5.75;3.15;;;;;;;-145.69;60.09;52028.53;5136457;27;20200;-81
2023/09/29 00:05:17;;;;;;;7.32;2.80;;;;;;;-145.69;59.52;52022.59;5135571;27;20216;-81
2023/09/29 00:07:43;;;;;;;8.27;2.90;;;;;;;-145.69;59.72;52038.44;5125893;27;20201;-81
2023/09/29 00:10:13;;;;;;;9.10;3.38;;;;;;;-145.69;60.43;51998.81;5115563;28;20205;-81
2023/09/29 00:12:43;;;;;;;7.45;3.72;;;;;;;-145.69;60.44;52024.56;5125512;27;20189;-81
2023/09/29 00:15:10;;;;;;;5.53;3.13;;;;;;;-145.69;59.89;51996.84;5134666;27;20227;-81
2023/09/29 00:17:37;;;;;;;5.88;2.95;;;;;;;-145.69;59.94;51996.84;5136409;27;20201;-81
2023/09/29 00:20:12;;;;;;;5.60;2.75;;;;;;;-145.69;59.40;52002.78;5135964;27;20225;-82
2023/09/29 00:22:38;;;;;;;6.80;2.75;;;;;;;-145.69;59.82;51988.91;5118100;27;20193;-81
2023/09/29 00:25:06;;;;;;;5.35;3.10;;;;;;;-145.69;58.91;51992.88;5130608;27;20193;-81
2023/09/29 00:27:32;;;;;;;5.95;2.83;;;;;;;-145.69;58.62;51996.84;5136237;27;20218;-80
2023/09/29 00:29:59;;;;;;;6.05;2.72;;;;;;;-145.69;58.23;51969.13;5135986;27;20664;-81
2023/09/29 00:32:25;;;;;;;4.97;2.88;;;;;;;-145.69;57.70;51984.97;5136008;27;20207;-82
2023/09/29 00:34:52;;;;;;;5.03;2.60;;;;;;;-145.69;57.51;51982.97;5135802;27;20204;-81
2023/09/29 00:37:20;;;;;;;7.00;2.70;;;;;;;-145.69;57.30;51990.91;5135949;27;20279;-81
2023/09/29 00:39:46;;;;;;;5.93;2.83;;;;;;;-145.69;57.21;52016.66;5135696;27;20288;-81
2023/09/29 00:42:13;;;;;;;6.35;2.72;;;;;;;-145.69;57.38;52028.53;5135971;27;20212;-82
2023/09/29 00:44:40;;;;;;;8.57;2.97;;;;;;;-145.69;57.28;52018.63;5135620;27;20272;-82
2023/09/29 00:47:09;;;;;;;7.35;3.03;;;;;;;-145.69;57.83;51998.81;5135881;27;20223;-81
2023/09/29 00:49:36;;;;;;;7.43;3.10;;;;;;;-145.69;58.35;52004.75;5112284;27;20198;-82
2023/09/29 00:52:04;;;;;;;6.50;2.60;;;;;;;-145.69;58.89;51984.97;5112388;27;20223;-81
2023/09/29 00:54:34;;;;;;;5.82;3.40;;;;;;;-145.69;58.74;52008.72;5131087;27;20275;-81
2023/09/29 00:57:04;;;;;;;5.78;2.72;;;;;;;-145.69;58.49;52024.56;5135082;27;20293;-81
2023/09/29 00:59:34;;;;;;;4.88;2.60;;;;;;;-145.69;58.76;52020.59;5115304;27;20205;-81
2023/09/29 01:02:09;;;;;;;7.13;2.90;;;;;;;-145.69;57.65;51969.13;5120400;27;20249;-80
2023/09/29 01:04:35;;;;;;;5.53;2.78;;;;;;;-145.69;57.46;52006.75;5114894;28;20200;-81
2023/09/29 01:07:03;;;;;;;7.10;3.00;;;;;;;-145.69;57.20;51984.97;5133222;27;20199;-81
2023/09/29 01:09:30;;;;;;;7.32;2.65;;;;;;;-145.69;57.15;51992.88;5118710;27;20193;-80
2023/09/29 01:12:00;;;;;;;8.30;2.65;;;;;;;-145.69;57.15;51992.88;5118612;27;20185;-81
2023/09/29 01:14:26;;;;;;;7.55;2.90;;;;;;;-145.69;57.55;52020.59;5135532;27;20237;-81
2023/09/29 01:16:53;;;;;;;5.28;2.67;;;;;;;-145.69;57.64;51986.94;5124577;27;20221;-81
2023/09/29 01:19:20;;;;;;;6.10;2.97;;;;;;;-145.69;57.89;52002.78;5122852;27;20227;-81
2023/09/29 01:21:46;;;;;;;5.28;2.53;;;;;;;-145.69;57.41;52024.56;5134441;27;20571;-81
2023/09/29 01:24:14;;;;;;;4.38;2.47;;;;;;;-145.69;57.26;52014.66;5134879;27;20200;-81
2023/09/29 01:26:44;;;;;;;7.72;2.88;;;;;;;-145.69;57.19;52028.53;5133317;27;20238;-81
2023/09/29 01:29:12;;;;;;;4.68;2.53;;;;;;;-145.69;57.89;52018.63;5133362;27;20197;-82
2023/09/29 01:31:39;;;;;;;5.05;2.55;;;;;;;-145.69;57.80;52004.75;5133771;27;20563;-81
2023/09/29 01:34:06;;;;;;;5.45;2.83;;;;;;;-145.69;58.73;52000.81;5133118;27;20277;-81
2023/09/29 01:36:35;;;;;;;5.55;2.80;;;;;;;-145.69;58.62;52004.75;5134842;27;20320;-81
2023/09/29 01:39:03;;;;;;;6.25;2.70;;;;;;;-145.69;58.58;52018.63;5134613;27;20224;-81
2023/09/29 01:41:31;;;;;;;6.75;2.60;;;;;;;-145.69;58.46;52012.69;5134868;27;20207;-81
2023/09/29 01:43:57;;;;;;;4.85;2.72;;;;;;;-145.69;58.03;52028.53;5134259;27;20207;-81
2023/09/29 01:46:24;;;;;;;5.38;2.80;;;;;;;-145.69;58.24;52040.41;5135002;27;20215;-82
2023/09/29 01:48:51;;;;;;;5.82;2.70;;;;;;;-145.69;58.43;51996.84;5132910;27;20559;-81
2023/09/29 01:51:18;;;;;;;4.53;2.22;;;;;;;-145.69;58.14;52018.63;5134379;27;20274;-81
2023/09/29 01:53:48;;;;;;;5.80;2.50;;;;;;;-145.69;58.13;52036.44;5116734;27;20194;-81
2023/09/29 01:56:17;;;;;;;3.25;2.10;;;;;;;-145.69;58.20;52014.66;5113926;28;20316;-81
2023/09/29 01:58:45;;;;;;;5.05;2.88;;;;;;;-145.69;58.62;52022.59;5113835;28;20284;-82
2023/09/29 02:01:12;;;;;;;5.07;2.50;;;;;;;-145.69;58.25;52030.50;5113894;28;20633;-82
2023/09/29 02:03:39;;;;;;;7.25;3.33;;;;;;;-145.69;58.43;51998.81;5113338;28;20201;-80
2023/09/29 02:06:06;;;;;;;5.43;2.50;;;;;;;-145.69;57.88;52012.69;5113694;28;20199;-81
2023/09/29 02:08:32;;;;;;;7.63;2.10;;;;;;;-145.69;57.82;52038.44;5113743;28;20204;-81
2023/09/29 02:11:00;;;;;;;4.70;2.53;;;;;;;-145.69;57.48;52016.66;5121402;27;20279;-81
2023/09/29 02:13:27;;;;;;;5.93;2.72;;;;;;;-145.69;57.00;52010.69;5119556;27;20193;-80
2023/09/29 02:15:54;;;;;;;7.03;3.13;;;;;;;-145.69;56.36;52036.44;5133857;27;20220;-81
2023/09/29 02:18:21;;;;;;;4.90;2.72;;;;;;;-145.69;56.48;52014.66;5092911;28;20238;-82
2023/09/29 02:20:50;;;;;;;4.60;2.38;;;;;;;-145.69;56.04;52006.75;5098838;28;20740;-82
2023/09/29 02:23:17;;;;;;;4.93;2.40;;;;;;;-145.69;56.02;52012.69;5113677;28;20205;-81
2023/09/29 02:25:46;;;;;;;5.70;2.47;;;;;;;-145.69;56.17;52004.75;5113853;28;20271;-82
2023/09/29 02:28:16;;;;;;;5.78;2.33;;;;;;;-145.69;55.82;51998.81;5113849;28;20201;-81
2023/09/29 02:30:43;;;;;;;6.95;2.90;;;;;;;-145.69;55.82;52000.81;5113241;28;20205;-81
2023/09/29 02:33:21;;;;;;;5.70;2.45;;;;;;;-145.69;55.64;52004.75;5113555;28;20280;-81
2023/09/29 02:35:51;;;;;;;3.65;2.42;;;;;;;-145.69;55.92;52016.66;5113078;28;20622;-82
2023/09/29 02:38:18;;;;;;;3.42;2.50;;;;;;;-145.69;56.20;52016.66;5114728;28;20216;-81
2023/09/29 02:40:47;;;;;;;6.60;2.60;;;;;;;-145.69;55.89;52006.75;5138131;27;20211;-81
2023/09/29 02:43:16;;;;;;;5.97;2.58;;;;;;;-145.69;55.84;51981.00;5130721;27;20234;-81
2023/09/29 02:45:43;;;;;;;3.78;2.30;;;;;;;-145.69;55.61;52044.38;5141108;27;20205;-81
2023/09/29 02:48:13;;;;;;;8.38;2.60;;;;;;;-145.69;55.63;52020.59;5140859;27;20245;-81
2023/09/29 02:50:41;;;;;;;4.63;2.28;;;;;;;-145.69;55.41;51986.94;5123073;27;20197;-81
2023/09/29 02:53:08;;;;;;;5.35;2.70;;;;;;;-145.69;54.89;52000.81;5120171;27;20205;-81
2023/09/29 02:55:38;;;;;;;7.78;2.10;;;;;;;-145.69;54.39;52016.66;5119193;27;20237;-81
2023/09/29 02:58:10;;;;;;;4.75;2.50;;;;;;;-145.69;54.41;51994.88;5117021;27;20198;-81
2023/09/29 03:00:41;;;;;;;5.30;2.40;;;;;;;-145.69;54.43;52018.63;5119615;27;20199;-81
2023/09/29 03:03:09;;;;;;;6.70;2.63;;;;;;;-145.69;54.13;52000.81;5120037;27;20228;-81
2023/09/29 03:05:43;;;;;;;8.20;2.63;;;;;;;-145.69;53.67;52028.53;5119600;27;20207;-81
2023/09/29 03:08:11;;;;;;;5.65;2.05;;;;;;;-145.69;53.97;51981.00;5120397;27;20190;-81
2023/09/29 03:10:43;;;;;;;6.45;2.88;;;;;;;-145.69;54.08;52028.53;5119772;27;20196;-81
2023/09/29 03:13:09;;;;;;;4.63;2.28;;;;;;;-145.69;53.95;51986.94;5129048;27;20196;-82
2023/09/29 03:15:40;;;;;;;5.13;2.47;;;;;;;-145.69;53.89;52012.69;5140389;27;20197;-82
2023/09/29 03:18:07;;;;;;;5.55;2.83;;;;;;;-145.69;53.75;52016.66;5140415;27;20228;-82
2023/09/29 03:20:35;;;;;;;5.07;2.28;;;;;;;-145.69;53.92;52016.66;5140494;27;20296;-81
2023/09/29 03:23:04;;;;;;;6.97;2.40;;;;;;;-145.69;53.72;51998.81;5134829;27;20208;-81
2023/09/29 03:25:32;;;;;;;5.38;2.53;;;;;;;-145.69;54.07;52002.78;5140444;27;20230;-81
2023/09/29 03:28:00;;;;;;;7.10;2.60;;;;;;;-145.69;53.89;52002.78;5139752;27;20204;-81
2023/09/29 03:30:27;;;;;;;8.82;2.60;;;;;;;-145.69;53.80;51971.09;5140060;27;20196;-81
2023/09/29 03:32:55;;;;;;;4.90;2.40;;;;;;;-145.69;53.77;52006.75;5130592;27;20204;-81
2023/09/29 03:35:22;;;;;;;7.05;2.50;;;;;;;-145.69;54.30;52020.59;5119689;27;20243;-81
2023/09/29 03:37:51;;;;;;;6.00;2.78;;;;;;;-145.69;53.57;52024.56;5119338;27;20312;-81
2023/09/29 03:40:19;;;;;;;5.20;2.70;;;;;;;-145.69;53.91;51996.84;5119222;27;20200;-81
2023/09/29 03:42:46;;;;;;;5.93;2.30;;;;;;;-145.69;54.23;52024.56;5122408;27;20196;-81
2023/09/29 03:45:14;;;;;;;5.55;2.55;;;;;;;-145.69;54.38;52008.72;5140190;27;20193;-81
2023/09/29 03:47:41;;;;;;;6.00;2.58;;;;;;;-145.69;54.02;52008.72;5139867;27;20731;-81
2023/09/29 03:50:10;;;;;;;9.38;2.70;;;;;;;-145.69;54.51;52000.81;5137365;27;20288;-81
2023/09/29 03:52:37;;;;;;;5.00;2.70;;;;;;;-145.69;54.41;51992.88;5129677;27;20621;-81
2023/09/29 03:55:09;;;;;;;4.53;2.50;;;;;;;-145.69;54.15;52004.75;5116471;28;20250;-81
2023/09/29 03:57:39;;;;;;;6.68;2.90;;;;;;;-145.69;53.92;52004.75;5124269;27;20312;-80
2023/09/29 04:00:12;;;;;;;4.65;2.78;;;;;;;-145.69;54.51;52040.41;5136941;27;20204;-82
2023/09/29 04:02:43;;;;;;;6.75;2.67;;;;;;;-145.69;54.46;52000.81;5136754;27;20200;-81
2023/09/29 04:05:10;;;;;;;5.20;2.70;;;;;;;-145.69;54.42;52026.53;5135002;27;20434;-81
2023/09/29 04:07:37;;;;;;;4.95;2.63;;;;;;;-145.69;54.76;52020.59;5134873;27;20197;-82
2023/09/29 04:10:05;;;;;;;5.38;2.88;;;;;;;-145.69;55.23;51969.13;5136286;27;20224;-80
2023/09/29 04:12:31;;;;;;;5.03;2.88;;;;;;;-145.69;55.61;52014.66;5136494;27;20203;-81
2023/09/29 04:14:59;;;;;;;5.45;2.72;;;;;;;-145.69;55.94;52024.56;5118489;27;20675;-81
2023/09/29 04:17:26;;;;;;;6.82;2.70;;;;;;;-145.69;55.97;51994.88;5102607;28;20712;-81
2023/09/29 04:19:55;;;;;;;13.43;2.80;;;;;;;-145.69;56.33;52020.59;5095165;28;20230;-81
2023/09/29 04:22:23;;;;;;;4.70;2.70;;;;;;;-145.69;56.27;52016.66;5112216;27;20288;-81
2023/09/29 04:24:55;;;;;;;8.15;2.67;;;;;;;-145.69;56.06;52000.81;5117252;27;20245;-82
2023/09/29 04:27:21;;;;;;;4.97;2.72;;;;;;;-145.69;55.87;52010.69;5135689;27;20197;-81
2023/09/29 04:29:48;;;;;;;5.75;2.72;;;;;;;-145.69;56.22;52022.59;5136003;27;20610;-82
2023/09/29 04:32:15;;;;;;;6.65;2.60;;;;;;;-145.69;56.09;52008.72;5136576;27;20205;-82
2023/09/29 04:34:45;;;;;;;4.25;2.58;;;;;;;-145.69;56.37;51992.88;5135962;27;20685;-81
2023/09/29 04:37:12;;;;;;;10.98;3.45;;;;;;;-145.69;56.34;52008.72;5135832;27;20224;-81
2023/09/29 04:39:38;;;;;;;9.35;3.13;;;;;;;-145.69;56.17;52020.59;5121393;27;20193;-81
2023/09/29 04:42:08;;;;;;;7.45;2.97;;;;;;;-145.69;56.20;52028.53;5115550;28;20292;-80
2023/09/29 04:44:38;;;;;;;6.50;2.70;;;;;;;-145.69;56.80;52020.59;5115102;28;20198;-81
2023/09/29 04:47:06;;;;;;;6.47;3.13;;;;;;;-145.69;56.92;52002.78;5115442;27;20587;-81
2023/09/29 04:49:34;;;;;;;9.23;3.03;;;;;;;-145.69;57.00;52008.72;5115219;28;20235;-80
2023/09/29 04:52:00;;;;;;;6.53;2.80;;;;;;;-145.69;57.25;52022.59;5105790;28;20193;-82
2023/09/29 04:54:27;;;;;;;6.65;2.90;;;;;;;-145.69;57.39;51990.91;5094630;28;20198;-81
2023/09/29 04:56:53;;;;;;;5.95;3.10;;;;;;;-145.69;57.78;52004.75;5107194;27;20687;-81
2023/09/29 04:59:23;;;;;;;7.57;3.38;;;;;;;-145.69;58.04;52012.69;5136306;27;20204;-81
2023/09/29 05:01:49;;;;;;;6.30;2.80;;;;;;;-145.69;58.48;51998.81;5134787;27;20203;-80
2023/09/29 05:04:18;;;;;;;6.38;2.65;;;;;;;-145.69;58.76;52004.75;5135768;27;20266;-80
2023/09/29 05:06:46;;;;;;;6.85;3.00;;;;;;;-145.69;58.30;52026.53;5135424;27;20709;-82
2023/09/29 05:09:12;;;;;;;13.18;3.10;;;;;;;-145.69;58.34;52000.81;5134818;27;20200;-81
2023/09/29 05:11:39;;;;;;;5.60;2.92;;;;;;;-145.69;58.26;52020.59;5136001;27;20386;-81
2023/09/29 05:14:06;;;;;;;6.72;3.13;;;;;;;-145.69;58.26;52030.50;5135997;27;20205;-81
2023/09/29 05:16:35;;;;;;;5.75;2.97;;;;;;;-145.69;57.76;52010.69;5134213;27;20227;-80
2023/09/29 05:19:01;;;;;;;7.13;2.60;;;;;;;-145.69;57.75;51996.84;5132596;27;20231;-81
2023/09/29 05:21:28;;;;;;;5.20;2.67;;;;;;;-145.69;57.65;52032.47;5134974;27;20224;-81
2023/09/29 05:24:01;;;;;;;6.43;3.10;;;;;;;-145.69;57.47;52028.53;5135294;27;20196;-82
2023/09/29 05:26:28;;;;;;;5.55;2.83;;;;;;;-145.69;57.44;51996.84;5135289;27;20196;-81
2023/09/29 05:28:55;;;;;;;4.57;2.63;;;;;;;-145.69;57.20;51973.06;5131267;27;20194;-82
2023/09/29 05:31:21;;;;;;;6.05;3.17;;;;;;;-145.69;57.27;51996.84;5114459;28;20205;-81
2023/09/29 05:33:48;;;;;;;9.32;3.20;;;;;;;-145.69;56.58;52032.47;5114229;28;20194;-81
2023/09/29 05:36:15;;;;;;;5.13;3.10;;;;;;;-145.69;57.94;51979.03;5113449;28;20481;-81
2023/09/29 05:38:41;;;;;;;5.53;3.22;;;;;;;-145.69;57.22;51992.88;5114375;28;20284;-82
2023/09/29 05:41:09;;;;;;;7.82;3.13;;;;;;;-145.69;56.52;51998.81;5114588;27;20193;-81
2023/09/29 05:43:38;;;;;;;4.30;2.47;;;;;;;-145.69;56.65;52010.69;5114289;28;20201;-81
2023/09/29 05:46:09;;;;;;;5.57;2.58;;;;;;;-145.69;56.65;51998.81;5114238;28;20247;-81
2023/09/29 05:48:35;;;;;;;7.03;3.00;;;;;;;-145.69;56.62;51996.84;5114292;28;20202;-82
2023/09/29 05:51:04;;;;;;;4.28;2.50;;;;;;;-145.69;56.27;52016.66;5114885;28;20280;-82
2023/09/29 05:53:30;;;;;;;8.10;2.85;;;;;;;-145.69;56.36;52010.69;5114447;28;20225;-81
2023/09/29 05:55:57;;;;;;;5.28;2.47;;;;;;;-145.69;55.76;51992.88;5113596;27;20207;-81
2023/09/29 05:58:26;;;;;;;6.05;2.30;;;;;;;-145.69;55.82;51984.97;5113455;28;20225;-81
2023/09/29 06:00:56;;;;;;;5.60;2.55;;;;;;;-145.69;55.48;51996.84;5133182;27;20188;-82
2023/09/29 06:03:22;;;;;;;6.28;2.50;;;;;;;-145.69;55.33;52000.81;5133990;27;20600;-81
2023/09/29 06:05:48;;;;;;;7.32;3.33;;;;;;;-145.69;55.29;51969.13;5127271;27;20203;-81
2023/09/29 06:08:15;;;;;;;6.95;2.58;;;;;;;-145.69;55.19;51996.84;5114111;27;20193;-81
2023/09/29 06:10:51;;;;;;;7.15;2.45;;;;;;;-145.69;55.21;52018.63;5113256;28;20201;-81
2023/09/29 06:13:20;;;;;;;7.05;2.70;;;;;;;-145.69;55.15;51996.84;5112846;28;20209;-81
2023/09/29 06:15:48;;;;;;;5.28;2.53;;;;;;;-145.69;55.03;51971.09;5113201;28;20285;-81
2023/09/29 06:18:17;;;;;;;4.78;2.50;;;;;;;-145.69;54.77;51979.03;5113165;28;20241;-81
2023/09/29 06:20:45;;;;;;;6.90;2.75;;;;;;;-145.69;55.44;51981.00;5117979;27;20450;-81
2023/09/29 06:23:15;;;;;;;4.53;2.30;;;;;;;-145.69;54.70;51990.91;5125100;27;20223;-81
2023/09/29 06:25:41;;;;;;;4.45;2.03;;;;;;;-145.69;54.19;51951.28;5113275;28;20197;-81
2023/09/29 06:28:13;;;;;;;6.60;2.20;;;;;;;-145.69;54.38;51977.03;5113337;28;20205;-81
2023/09/29 06:30:40;;;;;;;3.58;1.95;;;;;;;-145.69;54.71;51957.25;5113317;28;20198;-81
2023/09/29 06:33:10;;;;;;;3.25;2.00;;;;;;;-145.69;54.79;51935.47;5121718;27;20193;-81
2023/09/29 06:35:40;;;;;;;6.85;2.33;;;;;;;-145.69;54.48;51961.19;5133563;27;20551;-81
2023/09/29 06:38:07;;;;;;;4.70;2.22;;;;;;;-145.69;53.32;51973.06;5133850;27;20225;-81
2023/09/29 06:40:34;;;;;;;3.42;1.88;;;;;;;-145.69;53.00;51907.72;5133743;27;20228;-81
2023/09/29 06:43:00;;;;;;;5.15;2.20;;;;;;;-145.69;52.89;51947.34;5133925;27;20304;-81
2023/09/29 06:45:29;;;;;;;3.88;2.17;;;;;;;-145.69;52.73;51945.34;5133879;27;20212;-81
2023/09/29 06:47:56;;;;;;;4.18;1.85;;;;;;;-145.69;52.01;51947.34;5133928;27;20678;-81
2023/09/29 06:50:24;;;;;;;6.30;2.45;;;;;;;-145.69;51.66;51957.25;5133618;27;20200;-81
2023/09/29 06:52:50;;;;;;;17.20;3.28;;;;;;;-145.69;52.04;51943.38;5128689;27;20190;-81
2023/09/29 06:55:17;;;;;;;7.57;2.40;;;;;;;-145.69;50.97;51933.47;5113156;28;20202;-81
2023/09/29 06:57:43;;;;;;;4.13;2.10;;;;;;;-145.69;51.94;51923.56;5112498;28;20226;-81
2023/09/29 07:00:11;;;;;;;95.40;16.38;;;;;;;-145.69;52.26;51919.63;5095981;28;20197;-82
2023/09/29 07:02:39;;;;;;;50.78;10.25;;;;;;;-145.69;52.87;51933.47;5117832;28;20197;-81
2023/09/29 07:05:08;;;;;;;15.70;4.18;;;;;;;-145.69;51.68;51917.63;5135313;27;20207;-81
2023/09/29 07:07:36;;;;;;;17.90;5.72;;;;;;;-145.69;51.10;51923.56;5134632;27;20200;-81
2023/09/29 07:10:02;;;;;;;5.25;2.75;;;;;;;-145.69;51.30;51911.69;5120936;27;20193;-81
2023/09/29 07:12:32;;;;;;;8.27;2.63;;;;;;;-145.69;51.04;51915.66;5114308;28;20212;-81
2023/09/29 07:15:00;;;;;;;8.25;2.80;;;;;;;-145.69;51.58;51925.56;5114298;28;20652;-82
2023/09/29 07:17:27;;;;;;;10.40;2.58;;;;;;;-145.69;51.37;51909.72;5113890;28;20228;-82
2023/09/29 07:19:56;;;;;;;12.35;2.38;;;;;;;-145.69;51.55;51897.84;5115626;28;20588;-82
2023/09/29 07:22:27;;;;;;;3.63;2.20;;;;;;;-145.69;52.21;51887.94;5127559;28;20214;-82
2023/09/29 07:24:57;;;;;;;4.20;2.40;;;;;;;-145.69;51.15;51933.47;5123796;28;20240;-81
2023/09/29 07:27:39;;;;;;;4.43;2.25;;;;;;;-145.69;50.19;51885.94;5124727;28;20200;-82
2023/09/29 07:30:24;;;;;;;5.28;2.25;;;;;;;-145.69;50.06;51866.16;5124929;28;20203;-82
2023/09/29 07:32:53;;;;;;;5.30;2.53;;;;;;;-145.69;50.41;51893.88;5142365;27;20567;-82
2023/09/29 07:35:20;;;;;;;6.10;2.28;;;;;;;-145.69;49.96;51901.78;5125112;27;20221;-81
2023/09/29 07:37:47;;;;;;;3.70;2.20;;;;;;;-145.69;49.76;51858.22;5122881;27;20280;-82
2023/09/29 07:40:15;;;;;;;3.17;1.90;;;;;;;-145.69;49.55;51889.91;5130452;27;20280;-81
2023/09/29 07:42:42;;;;;;;3.78;2.25;;;;;;;-145.69;49.87;51870.13;5099223;28;20550;-81
2023/09/29 07:45:10;;;;;;;3.22;1.90;;;;;;;-145.69;49.61;51878.03;5098477;28;20230;-82
2023/09/29 07:47:40;;;;;;;6.85;2.10;;;;;;;-145.69;50.22;51854.28;5097276;28;20605;-82
2023/09/29 07:50:07;;;;;;;2.50;1.70;;;;;;;-145.69;49.82;51862.19;5105352;28;20610;-82
2023/09/29 07:52:37;;;;;;;3.72;1.98;;;;;;;-145.69;50.27;51882.00;5116223;28;20560;-81
2023/09/29 07:55:04;;;;;;;3.75;1.95;;;;;;;-145.69;50.49;51874.06;5108737;28;20190;-81
2023/09/29 07:57:33;;;;;;;3.58;1.90;;;;;;;-145.69;50.03;51878.03;5097295;28;20222;-81
2023/09/29 07:59:59;;;;;;;3.70;2.10;;;;;;;-145.69;49.05;51872.09;5097869;28;20200;-81
2023/09/29 08:02:26;;;;;;;3.13;1.80;;;;;;;-145.69;48.33;51838.44;5108506;28;20201;-81
2023/09/29 08:04:52;;;;;;;4.78;2.10;;;;;;;-145.69;48.34;51868.13;5116314;27;20197;-81
2023/09/29 08:07:20;;;;;;;4.57;2.28;;;;;;;-145.69;48.18;51862.19;5115893;27;20209;-81
2023/09/29 08:09:48;;;;;;;4.07;1.92;;;;;;;-145.69;48.72;51876.06;5124400;27;20197;-82
2023/09/29 08:12:15;;;;;;;4.65;2.00;;;;;;;-145.69;49.36;51866.16;5119534;27;20285;-82
2023/09/29 08:14:42;;;;;;;5.80;2.10;;;;;;;-145.69;50.18;51862.19;5118332;27;20194;-81
2023/09/29 08:17:09;;;;;;;6.32;2.25;;;;;;;-145.69;50.29;51891.88;5098208;28;20212;-81
2023/09/29 08:19:36;;;;;;;4.88;2.05;;;;;;;-145.69;48.28;51846.34;5111095;27;20577;-81
2023/09/29 08:22:03;;;;;;;2.83;1.73;;;;;;;-145.69;47.54;51862.19;5116055;28;20208;-81
2023/09/29 08:24:31;;;;;;;7.20;1.90;;;;;;;-145.69;46.67;51840.41;5119040;27;20222;-81
2023/09/29 08:26:58;;;;;;;4.63;1.98;;;;;;;-145.69;46.48;51862.19;5133459;27;20193;-82
2023/09/29 08:29:24;;;;;;;2.92;1.75;;;;;;;-145.69;46.04;51874.06;5127441;27;20225;-82
2023/09/29 08:31:54;;;;;;;2.40;1.70;;;;;;;-145.69;44.55;51842.38;5107591;27;20201;-81
2023/09/29 08:34:26;;;;;;;2.72;1.67;;;;;;;-145.69;43.76;51814.66;5137540;27;20196;-81
2023/09/29 08:36:53;;;;;;;31.30;6.70;;;;;;;-145.69;41.11;51830.50;5135819;27;20201;-81
2023/09/29 08:39:23;;;;;;;3.22;1.77;;;;;;;-145.69;41.03;51802.78;5124602;27;20230;-81
2023/09/29 08:41:58;;;;;;;11.50;2.35;;;;;;;-145.69;39.19;51816.66;5095248;28;20202;-82
2023/09/29 08:44:27;;;;;;;15.05;4.70;;;;;;;-145.69;39.71;51834.47;5096158;28;20204;-81
2023/09/29 08:47:00;;;;;;;3.40;1.85;;;;;;;-145.69;38.52;51779.03;5114594;28;20225;-83
2023/09/29 08:49:35;;;;;;;3.03;1.73;;;;;;;-145.69;37.63;51842.38;5119421;28;20205;-83
2023/09/29 08:52:03;;;;;;;4.57;1.85;;;;;;;-145.69;38.42;51840.41;5118419;27;20216;-83
2023/09/29 08:54:32;;;;;;;3.83;2.10;;;;;;;-145.69;38.72;51832.50;5117341;28;20212;-80
2023/09/29 08:57:05;;;;;;;3.15;1.70;;;;;;;-145.69;38.09;51808.72;5124876;27;20196;-82
2023/09/29 08:59:33;;;;;;;3.67;1.77;;;;;;;-145.69;38.27;51834.47;5136634;27;20259;-80
2023/09/29 09:02:01;;;;;;;5.03;2.20;;;;;;;-145.69;37.58;51818.63;5118907;27;20205;-80
2023/09/29 09:04:30;;;;;;;6.85;2.17;;;;;;;-145.69;37.55;51826.56;5121038;28;20205;-82
2023/09/29 09:07:02;;;;;;;4.53;2.20;;;;;;;-145.69;37.59;51820.59;5116212;28;20667;-82
2023/09/29 09:09:29;;;;;;;4.80;2.42;;;;;;;-145.69;37.70;51838.44;5119351;28;20219;-82
2023/09/29 09:11:56;;;;;;;9.85;2.60;;;;;;;-145.69;37.93;51832.50;5119914;28;20676;-82
2023/09/29 09:14:23;;;;;;;5.18;2.35;;;;;;;-145.69;37.43;51802.78;5115670;28;20189;-83
2023/09/29 09:16:50;;;;;;;5.38;2.22;;;;;;;-145.69;38.20;51802.78;5124716;27;20253;-81
2023/09/29 09:19:19;;;;;;;6.60;2.22;;;;;;;-145.69;39.01;51838.44;5128978;27;20609;-82
2023/09/29 09:21:46;;;;;;;3.63;1.90;;;;;;;-145.69;38.34;51826.56;5094994;28;20659;-80
2023/09/29 09:24:20;;;;;;;3.45;1.27;;;;;;;-145.69;37.17;51820.59;5094195;28;20198;-81
2023/09/29 09:26:47;;;;;;;2.55;1.80;;;;;;;-145.69;37.81;51828.53;5102218;27;20229;-80
2023/09/29 09:29:15;;;;;;;2.17;1.60;;;;;;;-145.69;38.96;51796.84;5114534;28;20197;-80
2023/09/29 09:31:46;;;;;;;4.75;1.85;;;;;;;-145.69;38.37;51808.72;5114210;27;20587;-80
2023/09/29 09:34:13;;;;;;;1.92;1.55;;;;;;;-145.69;38.06;51818.63;5127008;27;20541;-79
2023/09/29 09:36:55;;;;;;;4.80;2.05;;;;;;;-145.69;37.47;51846.34;5119762;27;20277;-80
2023/09/29 09:39:25;;;;;;;2.92;1.55;;;;;;;-145.69;38.35;51828.53;5130277;27;20733;-80
2023/09/29 09:41:56;;;;;;;2.22;1.55;;;;;;;-145.69;38.50;51828.53;5130896;27;20199;-80
2023/09/29 09:44:23;;;;;;;3.55;1.85;;;;;;;-145.69;38.20;51790.91;5130689;27;20196;-80
2023/09/29 09:47:00;;;;;;;3.45;1.98;;;;;;;-145.69;37.39;51826.56;5106653;27;20765;-81
2023/09/29 09:49:36;;;;;;;3.75;1.88;;;;;;;-145.69;38.02;51810.72;5129995;27;20211;-82
2023/09/29 09:52:07;;;;;;;4.03;1.63;;;;;;;-145.69;37.50;51814.66;5093868;28;20198;-79
2023/09/29 09:54:42;;;;;;;3.38;1.67;;;;;;;-145.69;37.45;51802.78;5093969;28;20239;-82
2023/09/29 09:57:13;;;;;;;4.03;2.13;;;;;;;-145.69;37.80;51796.84;5102142;28;20189;-82
2023/09/29 09:59:42;;;;;;;3.55;1.67;;;;;;;-145.69;37.24;51822.59;5117158;28;20241;-83
2023/09/29 10:02:11;;;;;;;4.10;2.03;;;;;;;-145.69;37.52;51796.84;5115815;28;20637;-82
2023/09/29 10:04:39;;;;;;;4.63;1.88;;;;;;;-145.69;37.90;51792.88;5117588;28;20189;-83
2023/09/29 10:07:08;;;;;;;3.40;1.90;;;;;;;-145.69;37.21;51800.81;5115779;28;20276;-83
2023/09/29 10:09:43;;;;;;;3.25;2.05;;;;;;;-145.69;38.91;51783.00;5114881;28;20203;-80
2023/09/29 10:12:24;;;;;;;4.38;1.98;;;;;;;-145.69;37.87;51838.44;5098290;27;20266;-83
2023/09/29 10:14:52;;;;;;;4.97;2.13;;;;;;;-145.69;38.01;51775.06;5114368;27;20216;-82
2023/09/29 10:17:20;;;;;;;3.38;1.90;;;;;;;-145.69;38.52;51828.53;5113813;28;20280;-82
2023/09/29 10:19:50;;;;;;;4.22;1.95;;;;;;;-145.69;38.23;51798.81;5112900;28;20286;-83
2023/09/29 10:22:24;;;;;;;2.95;1.90;;;;;;;-145.69;38.52;51800.81;5114491;28;20583;-83
2023/09/29 10:24:56;;;;;;;4.32;1.45;;;;;;;-145.69;39.02;51814.66;5119792;27;20228;-80
2023/09/29 10:27:31;;;;;;;5.95;2.20;;;;;;;-145.69;38.57;51830.50;5134396;27;20223;-81
2023/09/29 10:30:15;;;;;;;3.35;2.15;;;;;;;-145.69;38.60;51806.75;5125332;27;20626;-81
2023/09/29 10:32:43;;;;;;;4.15;1.92;;;;;;;-145.69;37.63;51826.56;5110814;27;20200;-81
2023/09/29 10:35:18;;;;;;;5.25;2.50;;;;;;;-145.69;37.67;51818.63;5133777;27;20267;-79
2023/09/29 10:37:49;;;;;;;5.43;2.15;;;;;;;-145.69;36.96;51818.63;5132823;27;20196;-80
2023/09/29 10:40:21;;;;;;;3.28;2.03;;;;;;;-145.69;37.80;51826.56;5122451;27;20648;-80
2023/09/29 10:42:48;;;;;;;5.93;2.20;;;;;;;-145.69;38.31;51812.69;5113342;28;20225;-80
2023/09/29 10:45:25;;;;;;;5.13;2.10;;;;;;;-145.69;37.50;51808.72;5113044;28;20186;-82
2023/09/29 10:47:53;;;;;;;3.85;1.98;;;;;;;-145.69;37.93;51826.56;5113568;28;20204;-80
2023/09/29 10:50:20;;;;;;;4.03;1.73;;;;;;;-145.69;38.04;51814.66;5106504;28;20201;-80
2023/09/29 10:52:48;;;;;;;4.63;1.80;;;;;;;-145.69;36.91;51794.88;5092605;28;20206;-83
2023/09/29 10:55:15;;;;;;;5.35;2.25;;;;;;;-145.69;37.49;51794.88;5093505;28;20657;-81
2023/09/29 10:57:43;;;;;;;3.60;1.92;;;;;;;-145.69;36.87;51790.91;5095269;28;20538;-81
2023/09/29 11:00:10;;;;;;;3.40;2.22;;;;;;;-145.69;37.63;51771.09;5098834;28;20697;-81
2023/09/29 11:02:38;;;;;;;4.75;1.85;;;;;;;-145.69;37.89;51792.88;5118622;27;20201;-82
2023/09/29 11:05:09;;;;;;;6.88;1.95;;;;;;;-145.69;38.04;51771.09;5117226;28;20186;-83
2023/09/29 11:07:46;;;;;;;7.75;2.63;;;;;;;-145.69;38.48;51775.06;5121187;27;20570;-81
2023/09/29 11:10:17;;;;;;;5.43;2.58;;;;;;;-145.69;38.24;51794.88;5121530;27;20193;-80
2023/09/29 11:12:46;;;;;;;4.72;2.30;;;;;;;-145.69;38.59;51788.94;5096543;28;20190;-80
2023/09/29 11:15:13;;;;;;;6.00;2.80;;;;;;;-145.69;38.86;51786.94;5100899;28;20243;-81
2023/09/29 11:17:45;;;;;;;7.10;2.45;;;;;;;-145.69;38.14;51798.81;5120831;27;20525;-81
2023/09/29 11:20:16;;;;;;;3.47;2.20;;;;;;;-145.69;38.34;51786.94;5129946;27;20221;-80
2023/09/29 11:22:45;;;;;;;5.43;2.13;;;;;;;-145.69;38.75;51773.09;5096603;28;20293;-80